FPO6LQ LFPG-LFSB
Flight info
| Callsign | FPO6LQ |
|---|---|
| Flight time | 0h 44m |
| Altitude | 19000 |
| Route | BAXIR A6 SOMDA B13 RLP Y112 LUL G42 ARPUS |
| Aircraft | B738/M-SDE2E3FGHIRWXY/LB1 |
Departure
| Time | 2026-05-03 20:41 |
|---|---|
| Airport | Charles de Gaulle International Airport (LFPG) |
Arrival
| Time | 2026-05-03 21:25 |
|---|---|
| Airport | EuroAirport Basel–Mulhouse–Freiburg (LFSB) |
| Time | Latitude | Longitude | Altitude | Speed | Heading |
|---|---|---|---|---|---|
| 2026-05-03 20:15 | 49.01325 | 2.50118 | 353 ft | 0 kts | 175° |
| 2026-05-03 20:29 | 49.01340 | 2.50116 | 361 ft | 4 kts | 175° |
| 2026-05-03 20:29 | 49.01367 | 2.50113 | 360 ft | 4 kts | 175° |
| 2026-05-03 20:29 | 49.01387 | 2.50110 | 357 ft | 4 kts | 162° |
| 2026-05-03 20:29 | 49.01408 | 2.50091 | 363 ft | 4 kts | 114° |
| 2026-05-03 20:30 | 49.01411 | 2.50069 | 356 ft | 0 kts | 85° |
| 2026-05-03 20:33 | 49.01413 | 2.50106 | 354 ft | 8 kts | 85° |
| 2026-05-03 20:33 | 49.01418 | 2.50209 | 358 ft | 10 kts | 86° |
| 2026-05-03 20:33 | 49.01423 | 2.50318 | 355 ft | 12 kts | 84° |
| 2026-05-03 20:33 | 49.01434 | 2.50518 | 353 ft | 22 kts | 86° |
| 2026-05-03 20:34 | 49.01447 | 2.50750 | 353 ft | 22 kts | 85° |
| 2026-05-03 20:34 | 49.01459 | 2.50976 | 356 ft | 21 kts | 85° |
| 2026-05-03 20:34 | 49.01471 | 2.51196 | 353 ft | 20 kts | 85° |
| 2026-05-03 20:34 | 49.01483 | 2.51419 | 353 ft | 25 kts | 85° |
| 2026-05-03 20:35 | 49.01499 | 2.51718 | 358 ft | 30 kts | 85° |
| 2026-05-03 20:35 | 49.01515 | 2.52022 | 358 ft | 28 kts | 85° |
| 2026-05-03 20:35 | 49.01531 | 2.52308 | 361 ft | 26 kts | 85° |
| 2026-05-03 20:35 | 49.01551 | 2.52574 | 353 ft | 24 kts | 71° |
| 2026-05-03 20:36 | 49.01631 | 2.52699 | 355 ft | 15 kts | 58° |
| 2026-05-03 20:36 | 49.01680 | 2.52841 | 353 ft | 16 kts | 45° |
| 2026-05-03 20:36 | 49.01748 | 2.53005 | 356 ft | 25 kts | 80° |
| 2026-05-03 20:36 | 49.01764 | 2.53302 | 353 ft | 28 kts | 85° |
| 2026-05-03 20:37 | 49.01780 | 2.53594 | 355 ft | 28 kts | 85° |
| 2026-05-03 20:37 | 49.01798 | 2.53918 | 353 ft | 33 kts | 86° |
| 2026-05-03 20:37 | 49.01817 | 2.54261 | 362 ft | 32 kts | 85° |
| 2026-05-03 20:37 | 49.01833 | 2.54589 | 355 ft | 30 kts | 85° |
| 2026-05-03 20:38 | 49.01850 | 2.54895 | 353 ft | 28 kts | 85° |
| 2026-05-03 20:38 | 49.01868 | 2.55179 | 356 ft | 26 kts | 85° |
| 2026-05-03 20:38 | 49.01881 | 2.55438 | 353 ft | 18 kts | 85° |
| 2026-05-03 20:38 | 49.01892 | 2.55622 | 360 ft | 14 kts | 77° |
| 2026-05-03 20:39 | 49.01976 | 2.55668 | 353 ft | 14 kts | 355° |
| 2026-05-03 20:39 | 49.02071 | 2.55655 | 353 ft | 13 kts | 355° |
| 2026-05-03 20:39 | 49.02162 | 2.55643 | 353 ft | 13 kts | 355° |
| 2026-05-03 20:39 | 49.02250 | 2.55632 | 356 ft | 13 kts | 355° |
| 2026-05-03 20:40 | 49.02290 | 2.55542 | 356 ft | 12 kts | 268° |
| 2026-05-03 20:40 | 49.02283 | 2.55412 | 353 ft | 13 kts | 265° |
| 2026-05-03 20:40 | 49.02258 | 2.54985 | 353 ft | 79 kts | 265° |
| 2026-05-03 20:40 | 49.02189 | 2.53762 | 360 ft | 149 kts | 265° |
| 2026-05-03 20:41 | 49.02112 | 2.52054 | 917 ft | 164 kts | 264° |
| 2026-05-03 20:41 | 49.02023 | 2.50358 | 1982 ft | 156 kts | 263° |
| 2026-05-03 20:41 | 49.01930 | 2.48726 | 2874 ft | 159 kts | 263° |
| 2026-05-03 20:41 | 49.01817 | 2.46926 | 3202 ft | 183 kts | 262° |
| 2026-05-03 20:42 | 49.01676 | 2.44926 | 3640 ft | 195 kts | 262° |
| 2026-05-03 20:42 | 49.01636 | 2.42792 | 3920 ft | 214 kts | 280° |
| 2026-05-03 20:42 | 49.02473 | 2.40799 | 4107 ft | 242 kts | 316° |
| 2026-05-03 20:42 | 49.03897 | 2.39267 | 4465 ft | 263 kts | 326° |
| 2026-05-03 20:43 | 49.05495 | 2.37804 | 5113 ft | 271 kts | 326° |
| 2026-05-03 20:43 | 49.07114 | 2.36316 | 5821 ft | 274 kts | 326° |
| 2026-05-03 20:43 | 49.08752 | 2.34786 | 6527 ft | 278 kts | 325° |
| 2026-05-03 20:43 | 49.09575 | 2.34019 | 6864 ft | 280 kts | 327° |
| 2026-05-03 20:44 | 49.11316 | 2.33093 | 7499 ft | 290 kts | 353° |
| 2026-05-03 20:44 | 49.13317 | 2.33495 | 8262 ft | 296 kts | 20° |
| 2026-05-03 20:44 | 49.15043 | 2.35214 | 8987 ft | 301 kts | 47° |
| 2026-05-03 20:44 | 49.16143 | 2.37926 | 9722 ft | 303 kts | 73° |
| 2026-05-03 20:45 | 49.16382 | 2.41104 | 10325 ft | 307 kts | 98° |
| 2026-05-03 20:45 | 49.15849 | 2.44362 | 10522 ft | 326 kts | 114° |
| 2026-05-03 20:45 | 49.14930 | 2.47653 | 10694 ft | 348 kts | 117° |
| 2026-05-03 20:45 | 49.13883 | 2.51100 | 10916 ft | 367 kts | 117° |
| 2026-05-03 20:46 | 49.12810 | 2.54678 | 11428 ft | 375 kts | 117° |
| 2026-05-03 20:46 | 49.11748 | 2.58348 | 12132 ft | 378 kts | 116° |
| 2026-05-03 20:46 | 49.10700 | 2.62055 | 12959 ft | 383 kts | 116° |
| 2026-05-03 20:46 | 49.09647 | 2.65802 | 13687 ft | 386 kts | 116° |
| 2026-05-03 20:47 | 49.08566 | 2.69577 | 14333 ft | 390 kts | 118° |
| 2026-05-03 20:47 | 49.07402 | 2.73331 | 15004 ft | 392 kts | 119° |
| 2026-05-03 20:47 | 49.06199 | 2.77080 | 15695 ft | 395 kts | 120° |
| 2026-05-03 20:47 | 49.04980 | 2.80849 | 16360 ft | 399 kts | 120° |
| 2026-05-03 20:48 | 49.03766 | 2.84613 | 16982 ft | 402 kts | 120° |
| 2026-05-03 20:48 | 49.02531 | 2.88460 | 17618 ft | 406 kts | 120° |
| 2026-05-03 20:48 | 49.01286 | 2.92350 | 18265 ft | 410 kts | 120° |
| 2026-05-03 20:48 | 49.00033 | 2.96273 | 18810 ft | 414 kts | 120° |
| 2026-05-03 20:49 | 48.98752 | 3.00287 | 19340 ft | 418 kts | 120° |
| 2026-05-03 20:49 | 48.97490 | 3.04235 | 19837 ft | 422 kts | 120° |
| 2026-05-03 20:49 | 48.96199 | 3.08269 | 20330 ft | 426 kts | 120° |
| 2026-05-03 20:49 | 48.94879 | 3.12390 | 20873 ft | 429 kts | 120° |
| 2026-05-03 20:50 | 48.93565 | 3.16486 | 21411 ft | 432 kts | 120° |
| 2026-05-03 20:50 | 48.92240 | 3.20607 | 21914 ft | 436 kts | 120° |
| 2026-05-03 20:50 | 48.90920 | 3.24709 | 22378 ft | 439 kts | 120° |
| 2026-05-03 20:50 | 48.89571 | 3.28891 | 22889 ft | 442 kts | 120° |
| 2026-05-03 20:51 | 48.88211 | 3.33100 | 23352 ft | 445 kts | 120° |
| 2026-05-03 20:51 | 48.86839 | 3.37342 | 23758 ft | 448 kts | 121° |
| 2026-05-03 20:51 | 48.85459 | 3.41601 | 24151 ft | 451 kts | 121° |
| 2026-05-03 20:51 | 48.84066 | 3.45894 | 24555 ft | 453 kts | 121° |
| 2026-05-03 20:52 | 48.82669 | 3.50190 | 24927 ft | 455 kts | 121° |
| 2026-05-03 20:52 | 48.81328 | 3.54564 | 25297 ft | 461 kts | 114° |
| 2026-05-03 20:52 | 48.80681 | 3.59391 | 25639 ft | 473 kts | 98° |
| 2026-05-03 20:52 | 48.80461 | 3.64387 | 26031 ft | 476 kts | 97° |
| 2026-05-03 20:53 | 48.80227 | 3.69397 | 26356 ft | 478 kts | 98° |
| 2026-05-03 20:53 | 48.79933 | 3.74450 | 26669 ft | 481 kts | 99° |
| 2026-05-03 20:53 | 48.79553 | 3.79480 | 26981 ft | 480 kts | 105° |
| 2026-05-03 20:53 | 48.78432 | 3.84176 | 27257 ft | 469 kts | 125° |
| 2026-05-03 20:54 | 48.76533 | 3.88124 | 27627 ft | 460 kts | 138° |
| 2026-05-03 20:54 | 48.71423 | 3.93562 | 28437 ft | 446 kts | 157° |
| 2026-05-03 20:54 | 48.68688 | 3.95750 | 28946 ft | 443 kts | 157° |
| 2026-05-03 20:55 | 48.65972 | 3.97939 | 29456 ft | 441 kts | 157° |
| 2026-05-03 20:55 | 48.63309 | 4.00119 | 29924 ft | 440 kts | 157° |
| 2026-05-03 20:55 | 48.60623 | 4.02347 | 30318 ft | 440 kts | 157° |
| 2026-05-03 20:55 | 48.57946 | 4.04576 | 30634 ft | 440 kts | 157° |
| 2026-05-03 20:56 | 48.55255 | 4.06813 | 30894 ft | 442 kts | 158° |
| 2026-05-03 20:56 | 48.52546 | 4.09046 | 30958 ft | 446 kts | 158° |
| 2026-05-03 20:56 | 48.47091 | 4.13522 | 30971 ft | 445 kts | 158° |
| 2026-05-03 20:57 | 48.41693 | 4.17950 | 30973 ft | 440 kts | 158° |
| 2026-05-03 20:57 | 48.36351 | 4.22491 | 30966 ft | 446 kts | 151° |
| 2026-05-03 20:58 | 48.31806 | 4.29083 | 30977 ft | 462 kts | 135° |
| 2026-05-03 20:58 | 48.28433 | 4.37467 | 30989 ft | 477 kts | 121° |
| 2026-05-03 20:59 | 48.25749 | 4.46558 | 30963 ft | 468 kts | 119° |
| 2026-05-03 20:59 | 48.23131 | 4.55533 | 30992 ft | 475 kts | 120° |
| 2026-05-03 21:00 | 48.21331 | 4.61568 | 30996 ft | 483 kts | 120° |
| 2026-05-03 21:00 | 48.17613 | 4.73866 | 30971 ft | 486 kts | 119° |
| 2026-05-03 21:01 | 48.14808 | 4.83081 | 30980 ft | 486 kts | 120° |
| 2026-05-03 21:01 | 48.11997 | 4.92284 | 30979 ft | 485 kts | 120° |
| 2026-05-03 21:02 | 48.09188 | 5.01444 | 30980 ft | 483 kts | 120° |
| 2026-05-03 21:02 | 48.06385 | 5.10556 | 30983 ft | 481 kts | 120° |
| 2026-05-03 21:03 | 48.03592 | 5.19599 | 30986 ft | 477 kts | 119° |
| 2026-05-03 21:03 | 48.00802 | 5.28596 | 30211 ft | 478 kts | 119° |
| 2026-05-03 21:04 | 47.99403 | 5.33095 | 29402 ft | 477 kts | 119° |
| 2026-05-03 21:04 | 47.98007 | 5.37579 | 28551 ft | 476 kts | 119° |
| 2026-05-03 21:04 | 47.96613 | 5.42047 | 27768 ft | 474 kts | 119° |
| 2026-05-03 21:04 | 47.95234 | 5.46464 | 27176 ft | 467 kts | 120° |
| 2026-05-03 21:05 | 47.93869 | 5.50831 | 26566 ft | 462 kts | 120° |
| 2026-05-03 21:05 | 47.92641 | 5.55252 | 25895 ft | 463 kts | 111° |
| 2026-05-03 21:05 | 47.91934 | 5.59863 | 25519 ft | 459 kts | 101° |
| 2026-05-03 21:05 | 47.91628 | 5.64519 | 25452 ft | 444 kts | 99° |
| 2026-05-03 21:06 | 47.91362 | 5.69021 | 25352 ft | 427 kts | 99° |
| 2026-05-03 21:06 | 47.91098 | 5.73391 | 25241 ft | 409 kts | 99° |
| 2026-05-03 21:06 | 47.90926 | 5.76155 | 25097 ft | 402 kts | 99° |
| 2026-05-03 21:06 | 47.90661 | 5.80260 | 24666 ft | 395 kts | 100° |
| 2026-05-03 21:07 | 47.90389 | 5.84323 | 24003 ft | 393 kts | 100° |
| 2026-05-03 21:07 | 47.90112 | 5.88379 | 23269 ft | 393 kts | 100° |
| 2026-05-03 21:07 | 47.89834 | 5.92413 | 22585 ft | 389 kts | 100° |
| 2026-05-03 21:07 | 47.89559 | 5.96393 | 22002 ft | 383 kts | 100° |
| 2026-05-03 21:08 | 47.89282 | 6.00367 | 20937 ft | 390 kts | 99° |
| 2026-05-03 21:08 | 47.88996 | 6.04418 | 19972 ft | 395 kts | 99° |
| 2026-05-03 21:08 | 47.88711 | 6.08477 | 19239 ft | 392 kts | 99° |
| 2026-05-03 21:08 | 47.88427 | 6.12523 | 18198 ft | 396 kts | 98° |
| 2026-05-03 21:09 | 47.88135 | 6.16638 | 16936 ft | 402 kts | 98° |
| 2026-05-03 21:09 | 47.87841 | 6.20778 | 15910 ft | 401 kts | 98° |
| 2026-05-03 21:09 | 47.87550 | 6.24873 | 15060 ft | 395 kts | 98° |
| 2026-05-03 21:09 | 47.87262 | 6.28903 | 14284 ft | 388 kts | 97° |
| 2026-05-03 21:10 | 47.86978 | 6.32862 | 13455 ft | 381 kts | 97° |
| 2026-05-03 21:10 | 47.86695 | 6.36785 | 12838 ft | 379 kts | 98° |
| 2026-05-03 21:10 | 47.86412 | 6.40678 | 12284 ft | 377 kts | 98° |
| 2026-05-03 21:10 | 47.86129 | 6.44544 | 11763 ft | 375 kts | 98° |
| 2026-05-03 21:11 | 47.85846 | 6.48395 | 11241 ft | 373 kts | 98° |
| 2026-05-03 21:11 | 47.85564 | 6.52207 | 10948 ft | 365 kts | 98° |
| 2026-05-03 21:11 | 47.85292 | 6.55898 | 10785 ft | 353 kts | 98° |
| 2026-05-03 21:11 | 47.85027 | 6.59464 | 10632 ft | 341 kts | 98° |
| 2026-05-03 21:12 | 47.84769 | 6.62923 | 10492 ft | 330 kts | 98° |
| 2026-05-03 21:12 | 47.84523 | 6.66224 | 10358 ft | 320 kts | 99° |
| 2026-05-03 21:12 | 47.84279 | 6.69471 | 10233 ft | 311 kts | 99° |
| 2026-05-03 21:12 | 47.84040 | 6.72625 | 10108 ft | 303 kts | 99° |
| 2026-05-03 21:13 | 47.83806 | 6.75704 | 9916 ft | 297 kts | 99° |
| 2026-05-03 21:13 | 47.83573 | 6.78747 | 9602 ft | 295 kts | 100° |
| 2026-05-03 21:13 | 47.83340 | 6.81778 | 9273 ft | 293 kts | 101° |
| 2026-05-03 21:13 | 47.83110 | 6.84778 | 8996 ft | 290 kts | 101° |
| 2026-05-03 21:14 | 47.82881 | 6.87757 | 8687 ft | 288 kts | 101° |
| 2026-05-03 21:14 | 47.82651 | 6.90711 | 8413 ft | 288 kts | 101° |
| 2026-05-03 21:14 | 47.82418 | 6.93668 | 8109 ft | 287 kts | 101° |
| 2026-05-03 21:14 | 47.82187 | 6.96625 | 7820 ft | 287 kts | 101° |
| 2026-05-03 21:15 | 47.81958 | 6.99581 | 7529 ft | 288 kts | 102° |
| 2026-05-03 21:15 | 47.81723 | 7.02546 | 7219 ft | 290 kts | 102° |
| 2026-05-03 21:15 | 47.81490 | 7.05524 | 6921 ft | 290 kts | 102° |
| 2026-05-03 21:15 | 47.81257 | 7.08500 | 6628 ft | 288 kts | 102° |
| 2026-05-03 21:16 | 47.81027 | 7.11424 | 6394 ft | 280 kts | 103° |
| 2026-05-03 21:16 | 47.80800 | 7.14292 | 6212 ft | 279 kts | 102° |
| 2026-05-03 21:16 | 47.80571 | 7.17174 | 6072 ft | 281 kts | 102° |
| 2026-05-03 21:16 | 47.80338 | 7.20076 | 5936 ft | 283 kts | 101° |
| 2026-05-03 21:17 | 47.80105 | 7.22975 | 5823 ft | 281 kts | 101° |
| 2026-05-03 21:17 | 47.79954 | 7.24867 | 5737 ft | 276 kts | 100° |
| 2026-05-03 21:17 | 47.79658 | 7.28578 | 5437 ft | 264 kts | 101° |
| 2026-05-03 21:17 | 47.79444 | 7.31243 | 5214 ft | 255 kts | 101° |
| 2026-05-03 21:18 | 47.79231 | 7.33854 | 4954 ft | 254 kts | 101° |
| 2026-05-03 21:18 | 47.78954 | 7.36426 | 4675 ft | 248 kts | 112° |
| 2026-05-03 21:18 | 47.78004 | 7.38373 | 4431 ft | 225 kts | 149° |
| 2026-05-03 21:18 | 47.76680 | 7.39508 | 4143 ft | 216 kts | 158° |
| 2026-05-03 21:19 | 47.75361 | 7.40464 | 3867 ft | 212 kts | 157° |
| 2026-05-03 21:19 | 47.74057 | 7.41382 | 3778 ft | 200 kts | 157° |
| 2026-05-03 21:19 | 47.72898 | 7.42455 | 3614 ft | 193 kts | 146° |
| 2026-05-03 21:19 | 47.71834 | 7.43639 | 3364 ft | 188 kts | 147° |
| 2026-05-03 21:20 | 47.70785 | 7.44653 | 3135 ft | 175 kts | 154° |
| 2026-05-03 21:20 | 47.69721 | 7.45401 | 2870 ft | 166 kts | 158° |
| 2026-05-03 21:20 | 47.68679 | 7.46080 | 2544 ft | 163 kts | 157° |
| 2026-05-03 21:20 | 47.67662 | 7.46790 | 2281 ft | 157 kts | 154° |
| 2026-05-03 21:21 | 47.66734 | 7.47508 | 2154 ft | 146 kts | 154° |
| 2026-05-03 21:21 | 47.65829 | 7.48192 | 2137 ft | 146 kts | 154° |
| 2026-05-03 21:21 | 47.64910 | 7.48839 | 2014 ft | 145 kts | 158° |
| 2026-05-03 21:21 | 47.64003 | 7.49425 | 1966 ft | 142 kts | 156° |
| 2026-05-03 21:22 | 47.63099 | 7.50097 | 2004 ft | 147 kts | 148° |
| 2026-05-03 21:22 | 47.62428 | 7.51231 | 2023 ft | 150 kts | 119° |
| 2026-05-03 21:22 | 47.61971 | 7.52620 | 1991 ft | 150 kts | 117° |
| 2026-05-03 21:22 | 47.61582 | 7.54052 | 1978 ft | 151 kts | 102° |
| 2026-05-03 21:23 | 47.61656 | 7.55593 | 1918 ft | 153 kts | 77° |
| 2026-05-03 21:23 | 47.61894 | 7.57111 | 1871 ft | 149 kts | 78° |
| 2026-05-03 21:23 | 47.61999 | 7.58598 | 1787 ft | 143 kts | 102° |
| 2026-05-03 21:23 | 47.61431 | 7.59757 | 1861 ft | 145 kts | 150° |
| 2026-05-03 21:24 | 47.60442 | 7.59888 | 1903 ft | 148 kts | 200° |
| 2026-05-03 21:24 | 47.59802 | 7.58759 | 1775 ft | 151 kts | 262° |
| 2026-05-03 21:24 | 47.59670 | 7.57237 | 1553 ft | 148 kts | 257° |
| 2026-05-03 21:24 | 47.59437 | 7.55754 | 1259 ft | 148 kts | 257° |
| 2026-05-03 21:25 | 47.59200 | 7.54271 | 998 ft | 147 kts | 257° |
| 2026-05-03 21:25 | 47.58973 | 7.52842 | 882 ft | 132 kts | 257° |
| 2026-05-03 21:25 | 47.58828 | 7.51941 | 879 ft | 46 kts | 256° |
| 2026-05-03 21:25 | 47.58815 | 7.51732 | 877 ft | 15 kts | 297° |
| 2026-05-03 21:26 | 47.58907 | 7.51671 | 882 ft | 15 kts | 354° |
| 2026-05-03 21:26 | 47.58993 | 7.51742 | 883 ft | 16 kts | 46° |
| 2026-05-03 21:26 | 47.59070 | 7.51858 | 883 ft | 15 kts | 45° |
| 2026-05-03 21:26 | 47.59145 | 7.51969 | 883 ft | 15 kts | 45° |
| 2026-05-03 21:27 | 47.59217 | 7.52077 | 883 ft | 16 kts | 45° |
| 2026-05-03 21:27 | 47.59281 | 7.52212 | 883 ft | 16 kts | 65° |
| 2026-05-03 21:27 | 47.59327 | 7.52360 | 883 ft | 15 kts | 63° |
| 2026-05-03 21:27 | 47.59375 | 7.52504 | 884 ft | 17 kts | 64° |
| 2026-05-03 21:28 | 47.59427 | 7.52667 | 887 ft | 18 kts | 65° |
| 2026-05-03 21:28 | 47.59479 | 7.52831 | 884 ft | 18 kts | 64° |
| 2026-05-03 21:28 | 47.59502 | 7.52903 | 883 ft | 3 kts | 64° |
| 2026-05-03 21:28 | 47.59516 | 7.52929 | 883 ft | 4 kts | 30° |
| 2026-05-03 21:29 | 47.59546 | 7.52924 | 883 ft | 5 kts | 339° |
| 2026-05-03 21:29 | 47.59584 | 7.52899 | 883 ft | 5 kts | 336° |
| 2026-05-03 21:29 | 47.59596 | 7.52930 | 883 ft | 5 kts | 112° |
| 2026-05-03 21:29 | 47.59585 | 7.52976 | 883 ft | 4 kts | 110° |
| 2026-05-03 21:30 | 47.59580 | 7.52995 | 883 ft | 0 kts | 110° |